sensor_id;sensor_type;location;lat;lon;timestamp;temperature;humidity
14934;DHT22;7560;51.364;12.384;2023-11-19T00:01:44;6.90;99.90
14934;DHT22;7560;51.364;12.384;2023-11-19T00:06:48;6.80;99.90
14934;DHT22;7560;51.364;12.384;2023-11-19T00:11:50;6.90;99.90
14934;DHT22;7560;51.364;12.384;2023-11-19T00:16:54;6.90;99.90
14934;DHT22;7560;51.364;12.384;2023-11-19T00:21:56;7.00;99.90
14934;DHT22;7560;51.364;12.384;2023-11-19T00:26:58;6.90;99.90
14934;DHT22;7560;51.364;12.384;2023-11-19T00:32:00;6.90;99.90
14934;DHT22;7560;51.364;12.384;2023-11-19T00:37:02;6.80;99.90
14934;DHT22;7560;51.364;12.384;2023-11-19T00:42:05;6.80;99.90
14934;DHT22;7560;51.364;12.384;2023-11-19T00:47:07;6.80;99.90
14934;DHT22;7560;51.364;12.384;2023-11-19T00:52:09;6.80;99.90
14934;DHT22;7560;51.364;12.384;2023-11-19T00:57:10;6.80;99.90
14934;DHT22;7560;51.364;12.384;2023-11-19T01:02:12;6.80;99.90
14934;DHT22;7560;51.364;12.384;2023-11-19T01:07:15;6.80;99.90
14934;DHT22;7560;51.364;12.384;2023-11-19T01:12:17;6.80;99.90
14934;DHT22;7560;51.364;12.384;2023-11-19T01:17:19;6.80;99.90
14934;DHT22;7560;51.364;12.384;2023-11-19T01:22:21;6.80;99.90
14934;DHT22;7560;51.364;12.384;2023-11-19T01:27:23;6.90;99.90
14934;DHT22;7560;51.364;12.384;2023-11-19T01:32:24;6.90;99.90
14934;DHT22;7560;51.364;12.384;2023-11-19T01:37:26;6.90;99.90
14934;DHT22;7560;51.364;12.384;2023-11-19T01:42:28;6.90;99.90
14934;DHT22;7560;51.364;12.384;2023-11-19T01:47:30;6.90;99.90
14934;DHT22;7560;51.364;12.384;2023-11-19T01:52:34;6.90;99.90
14934;DHT22;7560;51.364;12.384;2023-11-19T01:57:39;6.90;99.90
14934;DHT22;7560;51.364;12.384;2023-11-19T02:02:43;6.90;99.90
14934;DHT22;7560;51.364;12.384;2023-11-19T02:07:46;6.80;99.90
14934;DHT22;7560;51.364;12.384;2023-11-19T02:12:48;6.80;99.90
14934;DHT22;7560;51.364;12.384;2023-11-19T02:17:51;6.80;99.90
14934;DHT22;7560;51.364;12.384;2023-11-19T02:22:52;6.90;99.90
14934;DHT22;7560;51.364;12.384;2023-11-19T02:27:59;6.80;99.90
14934;DHT22;7560;51.364;12.384;2023-11-19T02:33:02;6.90;99.90
14934;DHT22;7560;51.364;12.384;2023-11-19T02:38:07;6.90;99.90
14934;DHT22;7560;51.364;12.384;2023-11-19T02:43:09;6.90;99.90
14934;DHT22;7560;51.364;12.384;2023-11-19T02:48:11;6.90;99.90
14934;DHT22;7560;51.364;12.384;2023-11-19T02:53:13;6.80;99.90
14934;DHT22;7560;51.364;12.384;2023-11-19T02:58:15;6.90;99.90
14934;DHT22;7560;51.364;12.384;2023-11-19T03:03:26;6.90;99.90
14934;DHT22;7560;51.364;12.384;2023-11-19T03:08:34;6.90;99.90
14934;DHT22;7560;51.364;12.384;2023-11-19T03:13:36;6.80;99.90
14934;DHT22;7560;51.364;12.384;2023-11-19T03:18:38;7.00;99.90
14934;DHT22;7560;51.364;12.384;2023-11-19T03:23:41;7.00;99.90
14934;DHT22;7560;51.364;12.384;2023-11-19T03:28:42;7.00;99.90
14934;DHT22;7560;51.364;12.384;2023-11-19T03:33:44;7.00;99.90
14934;DHT22;7560;51.364;12.384;2023-11-19T03:38:46;6.90;99.90
14934;DHT22;7560;51.364;12.384;2023-11-19T03:43:48;7.10;99.90
14934;DHT22;7560;51.364;12.384;2023-11-19T03:48:50;7.10;99.90
14934;DHT22;7560;51.364;12.384;2023-11-19T03:53:52;7.20;99.90
14934;DHT22;7560;51.364;12.384;2023-11-19T03:58:53;7.20;99.90
14934;DHT22;7560;51.364;12.384;2023-11-19T04:03:55;7.20;99.90
14934;DHT22;7560;51.364;12.384;2023-11-19T04:08:57;7.20;99.90
14934;DHT22;7560;51.364;12.384;2023-11-19T04:13:59;7.20;99.90
14934;DHT22;7560;51.364;12.384;2023-11-19T04:19:01;7.20;99.90
14934;DHT22;7560;51.364;12.384;2023-11-19T04:24:03;7.30;99.90
14934;DHT22;7560;51.364;12.384;2023-11-19T04:29:05;7.30;99.90
14934;DHT22;7560;51.364;12.384;2023-11-19T04:34:07;7.30;99.90
14934;DHT22;7560;51.364;12.384;2023-11-19T04:39:09;7.40;99.90
14934;DHT22;7560;51.364;12.384;2023-11-19T04:44:14;7.40;99.90
14934;DHT22;7560;51.364;12.384;2023-11-19T04:49:15;7.50;99.90
14934;DHT22;7560;51.364;12.384;2023-11-19T04:54:18;7.50;99.90
14934;DHT22;7560;51.364;12.384;2023-11-19T04:59:20;7.50;99.90
14934;DHT22;7560;51.364;12.384;2023-11-19T05:04:21;7.50;99.90
14934;DHT22;7560;51.364;12.384;2023-11-19T05:09:23;7.50;99.90
14934;DHT22;7560;51.364;12.384;2023-11-19T05:14:25;7.60;99.90
14934;DHT22;7560;51.364;12.384;2023-11-19T05:19:27;7.60;99.90
14934;DHT22;7560;51.364;12.384;2023-11-19T05:24:29;7.70;99.90
14934;DHT22;7560;51.364;12.384;2023-11-19T05:29:31;7.70;99.90
14934;DHT22;7560;51.364;12.384;2023-11-19T05:34:32;7.70;99.90
14934;DHT22;7560;51.364;12.384;2023-11-19T05:39:34;7.80;99.90
14934;DHT22;7560;51.364;12.384;2023-11-19T05:44:36;8.00;99.90
14934;DHT22;7560;51.364;12.384;2023-11-19T05:49:42;7.90;99.90
14934;DHT22;7560;51.364;12.384;2023-11-19T05:54:44;7.90;99.90
14934;DHT22;7560;51.364;12.384;2023-11-19T05:59:45;7.90;99.90
14934;DHT22;7560;51.364;12.384;2023-11-19T06:04:47;7.90;99.90
14934;DHT22;7560;51.364;12.384;2023-11-19T06:09:49;7.90;99.90
14934;DHT22;7560;51.364;12.384;2023-11-19T06:14:51;7.90;99.90
14934;DHT22;7560;51.364;12.384;2023-11-19T06:19:53;8.00;99.90
14934;DHT22;7560;51.364;12.384;2023-11-19T06:24:55;8.10;99.90
14934;DHT22;7560;51.364;12.384;2023-11-19T06:29:56;8.10;99.90
14934;DHT22;7560;51.364;12.384;2023-11-19T06:34:58;8.20;99.90
14934;DHT22;7560;51.364;12.384;2023-11-19T06:40:00;8.20;99.90
14934;DHT22;7560;51.364;12.384;2023-11-19T06:45:02;8.30;99.90
14934;DHT22;7560;51.364;12.384;2023-11-19T06:50:06;8.20;99.90
14934;DHT22;7560;51.364;12.384;2023-11-19T06:55:08;8.00;99.90
14934;DHT22;7560;51.364;12.384;2023-11-19T07:00:11;7.90;99.90
14934;DHT22;7560;51.364;12.384;2023-11-19T07:05:13;7.80;99.90
14934;DHT22;7560;51.364;12.384;2023-11-19T07:10:15;7.80;99.90
14934;DHT22;7560;51.364;12.384;2023-11-19T07:15:17;8.00;99.90
14934;DHT22;7560;51.364;12.384;2023-11-19T07:20:19;8.20;99.90
14934;DHT22;7560;51.364;12.384;2023-11-19T07:25:22;8.30;99.90
14934;DHT22;7560;51.364;12.384;2023-11-19T07:30:25;8.30;99.90
14934;DHT22;7560;51.364;12.384;2023-11-19T07:35:26;8.40;99.90
14934;DHT22;7560;51.364;12.384;2023-11-19T07:40:28;8.60;99.90
14934;DHT22;7560;51.364;12.384;2023-11-19T07:45:30;8.80;99.90
14934;DHT22;7560;51.364;12.384;2023-11-19T07:50:32;8.90;99.90
14934;DHT22;7560;51.364;12.384;2023-11-19T07:55:34;9.10;99.90
14934;DHT22;7560;51.364;12.384;2023-11-19T08:00:36;9.20;99.90
14934;DHT22;7560;51.364;12.384;2023-11-19T08:05:38;9.30;99.90
14934;DHT22;7560;51.364;12.384;2023-11-19T08:10:41;9.30;99.90
14934;DHT22;7560;51.364;12.384;2023-11-19T08:15:43;9.40;99.90
14934;DHT22;7560;51.364;12.384;2023-11-19T08:20:45;9.50;99.90
14934;DHT22;7560;51.364;12.384;2023-11-19T08:25:47;9.70;99.90
14934;DHT22;7560;51.364;12.384;2023-11-19T08:30:49;9.70;99.90
14934;DHT22;7560;51.364;12.384;2023-11-19T08:35:50;9.60;99.90
14934;DHT22;7560;51.364;12.384;2023-11-19T08:40:52;9.70;99.90
14934;DHT22;7560;51.364;12.384;2023-11-19T08:45:54;9.70;99.90
14934;DHT22;7560;51.364;12.384;2023-11-19T08:50:56;9.60;99.90
14934;DHT22;7560;51.364;12.384;2023-11-19T08:55:57;9.70;99.90
14934;DHT22;7560;51.364;12.384;2023-11-19T09:00:59;9.90;99.90
14934;DHT22;7560;51.364;12.384;2023-11-19T09:06:01;10.10;99.90
14934;DHT22;7560;51.364;12.384;2023-11-19T09:11:07;10.20;99.90
14934;DHT22;7560;51.364;12.384;2023-11-19T09:16:11;10.40;99.90
14934;DHT22;7560;51.364;12.384;2023-11-19T09:21:13;10.30;99.90
14934;DHT22;7560;51.364;12.384;2023-11-19T09:26:15;10.20;99.90
14934;DHT22;7560;51.364;12.384;2023-11-19T09:31:17;10.30;99.90
14934;DHT22;7560;51.364;12.384;2023-11-19T09:36:19;10.60;99.90
14934;DHT22;7560;51.364;12.384;2023-11-19T09:41:21;10.80;99.90
14934;DHT22;7560;51.364;12.384;2023-11-19T09:46:23;10.80;99.90
14934;DHT22;7560;51.364;12.384;2023-11-19T09:51:26;10.90;99.90
14934;DHT22;7560;51.364;12.384;2023-11-19T09:56:32;11.00;99.90
14934;DHT22;7560;51.364;12.384;2023-11-19T10:01:35;11.10;99.90
14934;DHT22;7560;51.364;12.384;2023-11-19T10:06:37;11.10;99.90
14934;DHT22;7560;51.364;12.384;2023-11-19T10:11:39;11.10;99.90
14934;DHT22;7560;51.364;12.384;2023-11-19T10:16:41;11.30;99.90
14934;DHT22;7560;51.364;12.384;2023-11-19T10:21:46;11.30;99.90
14934;DHT22;7560;51.364;12.384;2023-11-19T10:26:47;11.30;99.90
14934;DHT22;7560;51.364;12.384;2023-11-19T10:31:56;11.20;99.90
14934;DHT22;7560;51.364;12.384;2023-11-19T10:37:28;11.50;99.90
14934;DHT22;7560;51.364;12.384;2023-11-19T10:42:34;11.90;99.90
14934;DHT22;7560;51.364;12.384;2023-11-19T10:47:37;12.10;99.90
14934;DHT22;7560;51.364;12.384;2023-11-19T10:52:43;12.20;99.90
14934;DHT22;7560;51.364;12.384;2023-11-19T10:57:47;12.40;99.90
14934;DHT22;7560;51.364;12.384;2023-11-19T11:02:55;12.80;99.90
14934;DHT22;7560;51.364;12.384;2023-11-19T11:07:58;13.30;99.90
14934;DHT22;7560;51.364;12.384;2023-11-19T11:13:03;13.50;99.90
14934;DHT22;7560;51.364;12.384;2023-11-19T11:18:08;13.30;99.90
14934;DHT22;7560;51.364;12.384;2023-11-19T11:39:40;11.70;99.90
14934;DHT22;7560;51.364;12.384;2023-11-19T11:45:07;11.90;99.90
14934;DHT22;7560;51.364;12.384;2023-11-19T11:50:17;11.90;99.90
14934;DHT22;7560;51.364;12.384;2023-11-19T11:55:26;11.90;99.90
14934;DHT22;7560;51.364;12.384;2023-11-19T12:00:32;11.80;99.90
14934;DHT22;7560;51.364;12.384;2023-11-19T12:05:40;11.60;99.90
14934;DHT22;7560;51.364;12.384;2023-11-19T12:10:51;11.50;99.90
14934;DHT22;7560;51.364;12.384;2023-11-19T12:21:00;11.60;99.90
14934;DHT22;7560;51.364;12.384;2023-11-19T12:26:02;11.70;99.90
14934;DHT22;7560;51.364;12.384;2023-11-19T12:31:08;12.00;99.90
14934;DHT22;7560;51.364;12.384;2023-11-19T12:36:11;12.40;99.90
14934;DHT22;7560;51.364;12.384;2023-11-19T12:41:13;12.60;99.90
14934;DHT22;7560;51.364;12.384;2023-11-19T12:46:22;12.90;99.90
14934;DHT22;7560;51.364;12.384;2023-11-19T12:51:31;13.00;99.90
14934;DHT22;7560;51.364;12.384;2023-11-19T12:56:34;13.20;99.90
14934;DHT22;7560;51.364;12.384;2023-11-19T13:01:38;13.40;99.90
14934;DHT22;7560;51.364;12.384;2023-11-19T13:06:45;13.40;99.90
14934;DHT22;7560;51.364;12.384;2023-11-19T13:12:15;13.40;99.90
14934;DHT22;7560;51.364;12.384;2023-11-19T13:17:18;13.30;99.90
14934;DHT22;7560;51.364;12.384;2023-11-19T13:22:20;13.30;99.90
14934;DHT22;7560;51.364;12.384;2023-11-19T13:27:21;13.50;99.90
14934;DHT22;7560;51.364;12.384;2023-11-19T13:32:23;13.50;99.90
14934;DHT22;7560;51.364;12.384;2023-11-19T13:37:25;13.20;99.90
14934;DHT22;7560;51.364;12.384;2023-11-19T13:42:27;13.20;99.90
14934;DHT22;7560;51.364;12.384;2023-11-19T13:47:29;13.00;99.90
14934;DHT22;7560;51.364;12.384;2023-11-19T13:52:31;12.90;99.90
14934;DHT22;7560;51.364;12.384;2023-11-19T13:57:33;12.60;99.90
14934;DHT22;7560;51.364;12.384;2023-11-19T14:02:35;12.50;99.90
14934;DHT22;7560;51.364;12.384;2023-11-19T14:07:38;12.40;99.90
14934;DHT22;7560;51.364;12.384;2023-11-19T14:12:41;12.40;99.90
14934;DHT22;7560;51.364;12.384;2023-11-19T14:17:43;12.60;99.90
14934;DHT22;7560;51.364;12.384;2023-11-19T14:22:45;12.70;99.90
14934;DHT22;7560;51.364;12.384;2023-11-19T14:27:51;12.70;99.90
14934;DHT22;7560;51.364;12.384;2023-11-19T14:32:53;12.60;99.90
14934;DHT22;7560;51.364;12.384;2023-11-19T14:37:55;12.60;99.90
14934;DHT22;7560;51.364;12.384;2023-11-19T14:42:57;12.60;99.90
14934;DHT22;7560;51.364;12.384;2023-11-19T14:47:59;12.60;99.90
14934;DHT22;7560;51.364;12.384;2023-11-19T14:53:01;12.60;99.90
14934;DHT22;7560;51.364;12.384;2023-11-19T14:58:03;12.60;99.90
14934;DHT22;7560;51.364;12.384;2023-11-19T15:03:11;12.50;99.90
14934;DHT22;7560;51.364;12.384;2023-11-19T15:08:14;12.50;99.90
14934;DHT22;7560;51.364;12.384;2023-11-19T15:13:19;12.40;99.90
14934;DHT22;7560;51.364;12.384;2023-11-19T15:18:22;12.50;99.90
14934;DHT22;7560;51.364;12.384;2023-11-19T15:23:24;12.40;99.90
14934;DHT22;7560;51.364;12.384;2023-11-19T15:28:27;12.40;99.90
14934;DHT22;7560;51.364;12.384;2023-11-19T15:33:28;12.40;99.90
14934;DHT22;7560;51.364;12.384;2023-11-19T15:38:30;12.20;99.90
14934;DHT22;7560;51.364;12.384;2023-11-19T15:43:32;12.00;99.90
14934;DHT22;7560;51.364;12.384;2023-11-19T15:48:35;12.00;99.90
14934;DHT22;7560;51.364;12.384;2023-11-19T15:53:36;12.10;99.90
14934;DHT22;7560;51.364;12.384;2023-11-19T15:58:40;12.10;99.90
14934;DHT22;7560;51.364;12.384;2023-11-19T16:03:42;12.00;99.90
14934;DHT22;7560;51.364;12.384;2023-11-19T16:08:47;12.20;99.90
14934;DHT22;7560;51.364;12.384;2023-11-19T16:13:49;12.20;99.90
14934;DHT22;7560;51.364;12.384;2023-11-19T16:18:51;12.10;99.90
14934;DHT22;7560;51.364;12.384;2023-11-19T16:23:53;11.90;99.90
14934;DHT22;7560;51.364;12.384;2023-11-19T16:28:56;11.90;99.90
14934;DHT22;7560;51.364;12.384;2023-11-19T16:33:58;11.80;99.90
14934;DHT22;7560;51.364;12.384;2023-11-19T16:39:01;11.80;99.90
14934;DHT22;7560;51.364;12.384;2023-11-19T16:44:06;11.70;99.90
14934;DHT22;7560;51.364;12.384;2023-11-19T16:49:09;11.70;99.90
14934;DHT22;7560;51.364;12.384;2023-11-19T16:54:11;11.70;99.90
14934;DHT22;7560;51.364;12.384;2023-11-19T16:59:14;11.70;99.90
14934;DHT22;7560;51.364;12.384;2023-11-19T17:04:16;11.60;99.90
14934;DHT22;7560;51.364;12.384;2023-11-19T17:09:19;11.70;99.90
14934;DHT22;7560;51.364;12.384;2023-11-19T17:14:20;11.70;99.90
14934;DHT22;7560;51.364;12.384;2023-11-19T17:19:40;11.60;99.90
14934;DHT22;7560;51.364;12.384;2023-11-19T17:24:43;11.70;99.90
14934;DHT22;7560;51.364;12.384;2023-11-19T17:29:45;11.60;99.90
14934;DHT22;7560;51.364;12.384;2023-11-19T17:34:46;11.50;99.90
14934;DHT22;7560;51.364;12.384;2023-11-19T17:39:48;11.40;99.90
14934;DHT22;7560;51.364;12.384;2023-11-19T17:44:50;11.40;99.90
14934;DHT22;7560;51.364;12.384;2023-11-19T17:49:54;11.40;99.90
14934;DHT22;7560;51.364;12.384;2023-11-19T17:54:56;11.50;99.90
14934;DHT22;7560;51.364;12.384;2023-11-19T17:59:57;11.50;99.90
14934;DHT22;7560;51.364;12.384;2023-11-19T18:04:59;11.60;99.90
14934;DHT22;7560;51.364;12.384;2023-11-19T18:10:01;11.50;99.90
14934;DHT22;7560;51.364;12.384;2023-11-19T18:15:07;11.30;99.90
14934;DHT22;7560;51.364;12.384;2023-11-19T18:20:10;11.40;99.90
14934;DHT22;7560;51.364;12.384;2023-11-19T18:25:13;11.40;99.90
14934;DHT22;7560;51.364;12.384;2023-11-19T18:30:16;11.30;99.90
14934;DHT22;7560;51.364;12.384;2023-11-19T18:35:18;11.30;99.90
14934;DHT22;7560;51.364;12.384;2023-11-19T18:40:26;11.30;99.90
14934;DHT22;7560;51.364;12.384;2023-11-19T18:45:28;11.40;99.90
14934;DHT22;7560;51.364;12.384;2023-11-19T18:50:29;11.40;99.90
14934;DHT22;7560;51.364;12.384;2023-11-19T18:55:51;11.40;99.90
14934;DHT22;7560;51.364;12.384;2023-11-19T19:00:53;11.40;99.90
14934;DHT22;7560;51.364;12.384;2023-11-19T19:05:55;11.50;99.90
14934;DHT22;7560;51.364;12.384;2023-11-19T19:10:57;11.60;99.90
14934;DHT22;7560;51.364;12.384;2023-11-19T19:15:59;11.50;99.90
14934;DHT22;7560;51.364;12.384;2023-11-19T19:21:01;11.60;99.90
14934;DHT22;7560;51.364;12.384;2023-11-19T19:26:03;11.60;99.90
14934;DHT22;7560;51.364;12.384;2023-11-19T19:31:06;11.60;99.90
14934;DHT22;7560;51.364;12.384;2023-11-19T19:36:08;11.60;99.90
14934;DHT22;7560;51.364;12.384;2023-11-19T19:41:11;11.60;99.90
14934;DHT22;7560;51.364;12.384;2023-11-19T19:46:13;11.60;99.90
14934;DHT22;7560;51.364;12.384;2023-11-19T19:51:15;11.50;99.90
14934;DHT22;7560;51.364;12.384;2023-11-19T19:56:17;11.50;99.90
14934;DHT22;7560;51.364;12.384;2023-11-19T20:01:19;11.50;99.90
14934;DHT22;7560;51.364;12.384;2023-11-19T20:06:20;11.40;99.90
14934;DHT22;7560;51.364;12.384;2023-11-19T20:11:22;11.50;99.90
14934;DHT22;7560;51.364;12.384;2023-11-19T20:16:24;11.50;99.90
14934;DHT22;7560;51.364;12.384;2023-11-19T20:21:26;11.50;99.90
14934;DHT22;7560;51.364;12.384;2023-11-19T20:26:30;11.50;99.90
14934;DHT22;7560;51.364;12.384;2023-11-19T20:31:32;11.40;99.90
14934;DHT22;7560;51.364;12.384;2023-11-19T20:36:34;11.30;99.90
14934;DHT22;7560;51.364;12.384;2023-11-19T20:41:35;11.30;99.90
14934;DHT22;7560;51.364;12.384;2023-11-19T20:46:37;11.30;99.90
14934;DHT22;7560;51.364;12.384;2023-11-19T20:51:39;11.30;99.90
14934;DHT22;7560;51.364;12.384;2023-11-19T20:56:41;11.40;99.90
14934;DHT22;7560;51.364;12.384;2023-11-19T21:01:43;11.50;99.90
14934;DHT22;7560;51.364;12.384;2023-11-19T21:06:46;11.50;99.90
14934;DHT22;7560;51.364;12.384;2023-11-19T21:11:51;11.50;99.90
14934;DHT22;7560;51.364;12.384;2023-11-19T21:16:54;11.50;99.90
14934;DHT22;7560;51.364;12.384;2023-11-19T21:21:59;11.50;99.90
14934;DHT22;7560;51.364;12.384;2023-11-19T21:27:01;11.50;99.90
14934;DHT22;7560;51.364;12.384;2023-11-19T21:32:04;11.50;99.90
14934;DHT22;7560;51.364;12.384;2023-11-19T21:37:06;11.60;99.90
14934;DHT22;7560;51.364;12.384;2023-11-19T21:42:10;11.50;99.90
14934;DHT22;7560;51.364;12.384;2023-11-19T21:47:14;11.50;99.90
14934;DHT22;7560;51.364;12.384;2023-11-19T21:52:17;11.40;99.90
14934;DHT22;7560;51.364;12.384;2023-11-19T21:57:20;11.30;99.90
14934;DHT22;7560;51.364;12.384;2023-11-19T22:02:24;11.30;99.90
14934;DHT22;7560;51.364;12.384;2023-11-19T22:07:25;11.20;99.90
14934;DHT22;7560;51.364;12.384;2023-11-19T22:12:28;11.20;99.90
14934;DHT22;7560;51.364;12.384;2023-11-19T22:17:29;11.20;99.90
14934;DHT22;7560;51.364;12.384;2023-11-19T22:22:31;11.20;99.90
14934;DHT22;7560;51.364;12.384;2023-11-19T22:27:33;11.30;99.90
14934;DHT22;7560;51.364;12.384;2023-11-19T22:32:36;11.30;99.90
14934;DHT22;7560;51.364;12.384;2023-11-19T22:37:39;11.30;99.90
14934;DHT22;7560;51.364;12.384;2023-11-19T22:42:41;11.30;99.90
14934;DHT22;7560;51.364;12.384;2023-11-19T22:47:44;11.40;99.90
14934;DHT22;7560;51.364;12.384;2023-11-19T22:52:46;11.30;99.90
14934;DHT22;7560;51.364;12.384;2023-11-19T22:57:47;11.30;99.90
14934;DHT22;7560;51.364;12.384;2023-11-19T23:02:52;11.30;99.90
14934;DHT22;7560;51.364;12.384;2023-11-19T23:07:54;11.00;99.90
14934;DHT22;7560;51.364;12.384;2023-11-19T23:12:56;11.00;99.90
14934;DHT22;7560;51.364;12.384;2023-11-19T23:17:59;11.00;99.90
14934;DHT22;7560;51.364;12.384;2023-11-19T23:23:02;10.90;99.90
14934;DHT22;7560;51.364;12.384;2023-11-19T23:28:04;10.90;99.90
14934;DHT22;7560;51.364;12.384;2023-11-19T23:33:06;10.90;99.90
14934;DHT22;7560;51.364;12.384;2023-11-19T23:38:09;10.80;99.90
14934;DHT22;7560;51.364;12.384;2023-11-19T23:43:12;10.80;99.90
14934;DHT22;7560;51.364;12.384;2023-11-19T23:48:14;10.80;99.90
14934;DHT22;7560;51.364;12.384;2023-11-19T23:53:16;10.80;99.90
14934;DHT22;7560;51.364;12.384;2023-11-19T23:58:17;10.70;99.90
